NCAR-RAP Real-Time Weather Data

Output produced by METARs form (10 April 2020  06:46 UTC)
found at http://weather.rap.ucar.edu/surface/
 
KMGM 100553Z AUTO 35006KT 10SM OVC060 21/08 A2984 RMK AO2 SLP101 T02060078 10250 20206 403000189 53001 $
KMGM 100453Z AUTO 36007KT 10SM BKN060 BKN085 21/09 A2983 RMK AO2 SLP098 T02110089 $
KMGM 100353Z AUTO 34009KT 10SM FEW055 22/11 A2984 RMK AO2 SLP101 T02170111 $
KMGM 100253Z 31005KT 10SM CLR 21/13 A2983 RMK AO2 SLP099 T02110133 53019 $
KMGM 100153Z 33006KT 10SM CLR 22/14 A2981 RMK AO2 SLP090 T02220144 $
KMGM 100053Z 32004KT 10SM CLR 23/16 A2977 RMK AO2 SLP079 T02280156 $
KMGM 092353Z 29006KT 10SM CLR 25/17 A2978 RMK AO2 SLP080 T02500167 10300 20250 56003 $
KMGM 092253Z 28006KT 10SM CLR 28/16 A2978 RMK AO2 SLP080 T02780161 $
KMGM 092153Z 25007KT 10SM CLR 28/17 A2978 RMK AO2 SLP080 T02830167 $
KMGM 092053Z 31010KT 10SM CLR 29/17 A2979 RMK AO2 SLP083 T02940172 58019 $
KMGM 091953Z 30011KT 10SM CLR 29/17 A2980 RMK AO2 SLP089 T02890172 $
KMGM 091853Z 34007KT 10SM CLR 28/17 A2982 RMK AO2 SLP096 T02830172 $
KMGM 091753Z 30012KT 10SM FEW035 28/18 A2984 RMK AO2 SLP102 60000 T02780178 10278 20217 58002 $
KMGM 091653Z 32011G17KT 10SM CLR 27/17 A2985 RMK AO2 SLP105 T02720172 $
KMGM 091553Z 29011KT 10SM CLR 27/17 A2986 RMK AO2 SLP108 T02670167 $
KMGM 091453Z 24005KT 10SM CLR 26/19 A2985 RMK AO2 SLP104 60000 T02560189 51007 $
KMGM 091353Z 20003KT 9SM SCT100 22/19 A2981 RMK AO2 RAB37E46 SLP094 P0000 T02220194 $
KMGM 091253Z 30008KT 5SM BR SCT009 22/21 A2987 RMK AO2 SLP113 T02220206 $
KMGM 091200Z 25005KT 4SM BR SCT009 22/20 A2982 RMK AO2 T02170200 $
KMGM 091153Z 27004KT 4SM BR BKN009 22/20 A2983 RMK AO2 SLP096 60000 70005 T02170200 10228 20189 53023
KMGM 091053Z 29006KT 6SM BR OVC009 22/21 A2979 RMK AO2 RAB13E23 CIG 007V012 SLP084 P0000 T02220206
KMGM 091041Z AUTO 29006KT 7SM OVC009 23/21 A2978 RMK AO2 RAB13E23 CIG 007V014 P0000 T02280211
KMGM 090953Z AUTO 22004KT 5SM BR OVC012 22/21 A2977 RMK AO2 SLP077 T02170206
KMGM 090911Z AUTO 25004KT 5SM BR BKN013 21/20 A2976 RMK AO2 T02110200
KMGM 090853Z AUTO 25004KT 4SM BR CLR 21/20 A2976 RMK AO2 SLP074 T02110200 55008
KMGM 090823Z AUTO 24005KT 5SM BR SCT009 21/20 A2975 RMK AO2 T02060200
KMGM 090815Z AUTO 24006KT 3SM BR BKN009 21/19 A2975 RMK AO2 T02060189
KMGM 090811Z AUTO 24005KT 1 1/2SM BR BKN009 20/19 A2974 RMK AO2 T02000189
KMGM 090753Z AUTO 00000KT 1/2SM FG VV009 19/18 A2974 RMK AO2 SLP067 T01940178